createdAt,value
2019-03-30T00:01:23.862Z,99.90
2019-03-30T00:03:53.180Z,99.90
2019-03-30T00:06:23.384Z,99.90
2019-03-30T00:08:54.706Z,99.90
2019-03-30T00:11:23.411Z,99.90
2019-03-30T00:13:52.223Z,99.90
2019-03-30T00:16:20.856Z,99.90
2019-03-30T00:18:49.586Z,99.90
2019-03-30T00:21:18.272Z,99.90
2019-03-30T00:23:50.655Z,99.90
2019-03-30T00:26:26.711Z,99.90
2019-03-30T00:28:55.387Z,99.90
2019-03-30T00:31:27.419Z,99.90
2019-03-30T00:33:56.137Z,99.90
2019-03-30T00:36:24.877Z,99.90
2019-03-30T00:38:53.519Z,99.90
2019-03-30T00:41:22.143Z,99.90
2019-03-30T00:43:52.343Z,99.90
2019-03-30T00:46:23.667Z,99.90
2019-03-30T00:48:52.321Z,99.90
2019-03-30T00:51:26.804Z,99.90
2019-03-30T00:53:55.374Z,99.90
2019-03-30T00:56:24.072Z,99.90
2019-03-30T00:58:52.741Z,99.90
2019-03-30T01:01:21.449Z,99.90
2019-03-30T01:03:50.244Z,99.90
2019-03-30T01:06:19.290Z,99.90
2019-03-30T01:08:48.295Z,99.90
2019-03-30T01:11:18.404Z,99.90
2019-03-30T01:13:47.218Z,99.90
2019-03-30T01:16:16.051Z,99.90
2019-03-30T01:18:48.202Z,99.90
2019-03-30T01:21:22.978Z,99.90
2019-03-30T01:23:51.704Z,99.90
2019-03-30T01:26:20.419Z,99.90
2019-03-30T01:28:49.090Z,99.90
2019-03-30T01:31:17.730Z,99.90
2019-03-30T01:33:46.622Z,99.90
2019-03-30T01:36:15.458Z,99.90
2019-03-30T01:38:44.021Z,99.90
2019-03-30T01:41:12.736Z,99.90
2019-03-30T01:43:41.480Z,99.90
2019-03-30T01:46:10.115Z,99.90
2019-03-30T01:48:38.761Z,99.90
2019-03-30T01:51:07.433Z,99.90
2019-03-30T01:53:36.146Z,99.90
2019-03-30T01:56:05.446Z,99.90
2019-03-30T01:58:34.176Z,99.90
2019-03-30T02:01:04.825Z,99.90
2019-03-30T02:03:33.242Z,99.90
2019-03-30T02:06:01.981Z,99.90
2019-03-30T02:08:31.071Z,99.90
2019-03-30T02:10:59.725Z,99.90
2019-03-30T02:13:28.477Z,99.90
2019-03-30T02:15:57.203Z,99.90
2019-03-30T02:18:25.911Z,99.90
2019-03-30T02:20:54.577Z,99.90
2019-03-30T02:23:23.251Z,99.90
2019-03-30T02:25:51.952Z,99.90
2019-03-30T02:28:21.769Z,99.90
2019-03-30T02:30:51.920Z,99.90
2019-03-30T02:33:20.631Z,99.90
2019-03-30T02:35:49.333Z,99.90
2019-03-30T02:38:18.048Z,99.90
2019-03-30T02:40:46.737Z,99.90
2019-03-30T02:43:15.356Z,99.90
2019-03-30T02:45:44.058Z,99.90
2019-03-30T02:48:12.691Z,99.90
2019-03-30T02:50:50.020Z,99.90
2019-03-30T02:53:11.666Z,99.90
2019-03-30T02:55:40.316Z,99.90
2019-03-30T02:58:09.059Z,99.90
2019-03-30T03:00:37.872Z,99.90
2019-03-30T03:03:06.573Z,99.90
2019-03-30T03:05:35.333Z,99.90
2019-03-30T03:08:03.990Z,99.90
2019-03-30T03:10:32.891Z,99.90
2019-03-30T03:13:01.637Z,99.90
2019-03-30T03:15:30.389Z,99.90
2019-03-30T03:17:59.543Z,99.90
2019-03-30T03:20:28.218Z,99.90
2019-03-30T03:22:56.867Z,99.90
2019-03-30T03:25:25.693Z,99.90
2019-03-30T03:28:13.885Z,99.90
2019-03-30T03:30:42.529Z,99.90
2019-03-30T03:33:11.179Z,99.90
2019-03-30T03:35:39.922Z,99.90
2019-03-30T03:38:08.628Z,99.90
2019-03-30T03:40:37.445Z,99.90
2019-03-30T03:43:06.695Z,99.90
2019-03-30T03:45:35.572Z,99.90
2019-03-30T03:48:04.296Z,99.90
2019-03-30T03:50:38.167Z,99.90
2019-03-30T03:53:07.275Z,99.90
2019-03-30T03:55:37.465Z,99.90
2019-03-30T03:58:07.711Z,99.90
2019-03-30T04:00:36.720Z,99.90
2019-03-30T04:03:05.933Z,99.90
2019-03-30T04:05:39.012Z,99.90
2019-03-30T04:08:10.513Z,99.90
2019-03-30T04:10:39.795Z,99.90
2019-03-30T04:13:10.810Z,99.90
2019-03-30T04:15:39.835Z,99.90
2019-03-30T04:18:08.739Z,99.90
2019-03-30T04:20:44.615Z,99.90
2019-03-30T04:23:13.330Z,99.90
2019-03-30T04:25:44.743Z,99.90
2019-03-30T04:28:13.369Z,99.90
2019-03-30T04:30:42.090Z,99.90
2019-03-30T04:33:10.762Z,99.90
2019-03-30T04:35:39.692Z,99.90
2019-03-30T04:38:08.404Z,99.90
2019-03-30T04:40:37.139Z,99.90
2019-03-30T04:43:05.838Z,99.90
2019-03-30T04:45:34.483Z,99.90
2019-03-30T04:48:03.230Z,99.90
2019-03-30T04:50:31.867Z,99.90
2019-03-30T04:53:00.506Z,99.90
2019-03-30T04:55:29.197Z,99.90
2019-03-30T04:57:58.087Z,99.90
2019-03-30T05:00:27.099Z,99.90
2019-03-30T05:02:55.763Z,99.90
2019-03-30T05:05:24.675Z,99.90
2019-03-30T05:07:53.661Z,99.90
2019-03-30T05:10:22.345Z,99.90
2019-03-30T05:12:52.737Z,99.90
2019-03-30T05:15:21.452Z,99.90
2019-03-30T05:17:53.177Z,99.90
2019-03-30T05:20:22.896Z,99.90
2019-03-30T05:22:53.091Z,99.90
2019-03-30T05:25:21.861Z,99.90
2019-03-30T05:27:50.493Z,99.90
2019-03-30T05:30:19.217Z,99.90
2019-03-30T05:32:47.960Z,99.90
2019-03-30T05:35:16.707Z,99.90
2019-03-30T05:37:46.989Z,99.90
2019-03-30T05:40:15.729Z,99.90
2019-03-30T05:42:44.369Z,99.90
2019-03-30T05:45:13.681Z,99.90
2019-03-30T05:47:42.281Z,99.90
2019-03-30T05:50:11.263Z,99.90
2019-03-30T05:52:39.991Z,99.90
2019-03-30T05:55:09.113Z,99.90
2019-03-30T05:57:40.490Z,99.90
2019-03-30T06:00:16.353Z,99.90
2019-03-30T06:02:45.059Z,99.90
2019-03-30T06:05:13.760Z,99.90
2019-03-30T06:07:42.428Z,99.90
2019-03-30T06:10:11.439Z,99.90
2019-03-30T06:12:40.154Z,99.90
2019-03-30T06:15:08.994Z,99.90
2019-03-30T06:17:40.161Z,99.90
2019-03-30T06:20:32.757Z,99.90
2019-03-30T06:23:01.398Z,99.90
2019-03-30T06:25:30.028Z,99.90
2019-03-30T06:27:58.693Z,99.90
2019-03-30T06:30:28.398Z,99.90
2019-03-30T06:32:57.105Z,99.90
2019-03-30T06:35:28.991Z,99.90
2019-03-30T06:37:57.710Z,99.90
2019-03-30T06:40:26.434Z,99.90
2019-03-30T06:42:55.418Z,99.90
2019-03-30T06:45:24.052Z,99.90
2019-03-30T06:47:52.697Z,99.90
2019-03-30T06:50:21.483Z,99.90
2019-03-30T06:52:57.311Z,99.90
2019-03-30T06:55:20.668Z,99.90
2019-03-30T06:57:49.290Z,99.90
2019-03-30T07:00:19.658Z,99.90
2019-03-30T07:02:48.372Z,99.90
2019-03-30T07:05:18.584Z,99.90
2019-03-30T07:07:47.686Z,99.90
2019-03-30T07:10:16.394Z,99.90
2019-03-30T07:12:46.994Z,99.90
2019-03-30T07:15:16.520Z,99.90
2019-03-30T07:17:46.909Z,99.90
2019-03-30T07:20:29.614Z,99.90
2019-03-30T07:23:11.255Z,99.90
2019-03-30T07:25:34.793Z,99.90
2019-03-30T07:28:03.507Z,99.90
2019-03-30T07:30:32.162Z,99.90
2019-03-30T07:33:03.874Z,99.90
2019-03-30T07:35:32.227Z,99.90
2019-03-30T07:38:01.082Z,99.90
2019-03-30T07:40:29.723Z,99.90
2019-03-30T07:42:58.687Z,99.90
2019-03-30T07:45:27.410Z,99.90
2019-03-30T07:47:56.080Z,99.90
2019-03-30T07:50:25.032Z,99.90
2019-03-30T07:52:53.761Z,99.90
2019-03-30T07:55:22.593Z,99.90
2019-03-30T07:58:10.619Z,99.90
2019-03-30T08:00:39.552Z,99.90
2019-03-30T08:03:08.238Z,99.90
2019-03-30T08:05:36.897Z,99.90
2019-03-30T08:08:05.661Z,99.90
2019-03-30T08:10:36.710Z,99.90
2019-03-30T08:13:07.758Z,99.90
2019-03-30T08:15:37.363Z,99.90
2019-03-30T08:18:06.498Z,99.90
2019-03-30T08:20:36.869Z,99.90
2019-03-30T08:23:05.949Z,99.90
2019-03-30T08:25:34.723Z,99.90
2019-03-30T08:28:06.347Z,99.90
2019-03-30T08:30:35.211Z,99.90
2019-03-30T08:33:03.935Z,99.90
2019-03-30T08:35:35.269Z,99.90
2019-03-30T08:38:04.427Z,99.90
2019-03-30T08:40:33.585Z,99.90
2019-03-30T08:43:02.302Z,99.90
2019-03-30T08:45:31.045Z,99.90
2019-03-30T08:47:59.831Z,99.90
2019-03-30T08:50:33.721Z,99.90
2019-03-30T08:53:02.517Z,99.90
2019-03-30T08:55:31.318Z,99.90
2019-03-30T08:58:00.037Z,99.90
2019-03-30T09:00:42.152Z,99.90
2019-03-30T09:03:22.660Z,99.90
2019-03-30T09:05:51.469Z,99.90
2019-03-30T09:08:23.680Z,99.90
2019-03-30T09:10:52.679Z,99.90
2019-03-30T09:13:21.374Z,99.90
2019-03-30T09:15:50.095Z,99.90
2019-03-30T09:18:19.311Z,99.90
2019-03-30T09:20:48.302Z,99.90
2019-03-30T09:23:17.001Z,99.90
2019-03-30T09:25:45.715Z,99.90
2019-03-30T09:28:16.587Z,99.90
2019-03-30T09:30:45.375Z,99.90
2019-03-30T09:33:14.318Z,99.90
2019-03-30T09:35:43.071Z,99.90
2019-03-30T09:38:14.658Z,99.90
2019-03-30T09:40:43.631Z,99.90
2019-03-30T09:43:15.303Z,99.90
2019-03-30T09:45:45.557Z,99.90
2019-03-30T09:48:14.340Z,99.90
2019-03-30T09:50:43.094Z,99.90
2019-03-30T09:53:11.869Z,99.90
2019-03-30T09:55:40.500Z,99.90
2019-03-30T09:58:12.265Z,99.90
2019-03-30T10:00:40.972Z,99.90
2019-03-30T10:03:09.772Z,99.90
2019-03-30T10:05:38.985Z,99.90
2019-03-30T10:08:07.646Z,99.90
2019-03-30T10:10:38.432Z,99.90
2019-03-30T10:13:08.786Z,99.90
2019-03-30T10:15:37.668Z,99.90
2019-03-30T10:18:06.400Z,99.90
2019-03-30T10:20:43.728Z,99.90
2019-03-30T10:23:13.445Z,99.90
2019-03-30T10:25:45.798Z,99.90
2019-03-30T10:28:14.547Z,99.90
2019-03-30T10:30:44.410Z,99.90
2019-03-30T10:33:13.014Z,99.90
2019-03-30T10:35:41.772Z,99.90
2019-03-30T10:38:10.483Z,99.90
2019-03-30T10:40:39.211Z,99.90
2019-03-30T10:43:07.963Z,99.90
2019-03-30T10:45:36.685Z,99.60
2019-03-30T10:48:05.576Z,99.90
2019-03-30T10:50:34.399Z,98.50
2019-03-30T10:53:05.059Z,97.90
2019-03-30T10:55:33.490Z,97.20
2019-03-30T10:58:04.922Z,99.50
2019-03-30T11:00:38.882Z,96.50
2019-03-30T11:03:08.728Z,97.60
2019-03-30T11:05:38.794Z,99.80
2019-03-30T11:08:07.690Z,98.10
2019-03-30T11:10:36.437Z,98.80
2019-03-30T11:13:06.918Z,97.10
2019-03-30T11:18:25.927Z,97.80
2019-03-30T11:20:55.684Z,97.20
2019-03-30T11:23:24.391Z,95.20
2019-03-30T11:28:30.685Z,97.50
2019-03-30T11:31:00.577Z,95.90
2019-03-30T11:33:29.384Z,94.70
2019-03-30T11:38:40.797Z,94.50
2019-03-30T11:41:11.467Z,94.40
2019-03-30T11:43:40.183Z,93.70
2019-03-30T11:46:10.767Z,94.90
2019-03-30T11:48:39.474Z,95.50
2019-03-30T11:51:13.776Z,93.90
2019-03-30T11:53:45.591Z,92.60
2019-03-30T11:56:18.785Z,91.30
2019-03-30T11:58:47.501Z,92.80
2019-03-30T12:01:16.231Z,92.00
2019-03-30T12:03:44.916Z,92.20
2019-03-30T12:06:14.459Z,91.60
2019-03-30T12:08:44.835Z,91.40
2019-03-30T12:11:16.910Z,90.70
2019-03-30T12:13:47.517Z,91.00
2019-03-30T12:16:18.829Z,91.10
2019-03-30T12:18:53.883Z,90.60
2019-03-30T12:21:22.782Z,91.20
2019-03-30T12:23:51.529Z,91.40
2019-03-30T12:26:20.101Z,90.70
2019-03-30T12:28:48.801Z,91.60
2019-03-30T12:31:19.959Z,90.50
2019-03-30T12:33:49.147Z,90.30
2019-03-30T12:36:19.653Z,89.40
2019-03-30T12:38:48.857Z,89.10
2019-03-30T12:41:17.731Z,87.90
2019-03-30T12:43:46.634Z,86.70
2019-03-30T12:46:15.329Z,84.80
2019-03-30T12:48:45.836Z,83.30
2019-03-30T12:51:14.403Z,83.80
2019-03-30T12:53:50.379Z,82.60
2019-03-30T12:56:18.961Z,82.10
2019-03-30T12:58:48.805Z,81.20
2019-03-30T13:01:20.587Z,82.80
2019-03-30T13:03:49.118Z,84.80
2019-03-30T13:06:19.318Z,83.10
2019-03-30T13:08:49.794Z,83.00
2019-03-30T13:11:18.499Z,81.40
2019-03-30T13:13:47.184Z,84.50
2019-03-30T13:16:17.765Z,82.40
2019-03-30T13:18:46.729Z,82.10
2019-03-30T13:21:15.809Z,83.80
2019-03-30T13:23:44.517Z,83.30
2019-03-30T13:26:13.149Z,84.70
2019-03-30T13:28:45.456Z,86.60
2019-03-30T13:31:14.159Z,85.10
2019-03-30T13:33:42.807Z,86.70
2019-03-30T13:36:12.137Z,88.20
2019-03-30T13:38:40.784Z,86.00
2019-03-30T13:41:09.419Z,87.50
2019-03-30T13:43:38.086Z,89.70
2019-03-30T13:46:06.915Z,90.70
2019-03-30T13:48:38.347Z,91.00
2019-03-30T13:51:08.027Z,88.90
2019-03-30T13:53:36.733Z,88.40
2019-03-30T13:56:16.591Z,89.80
2019-03-30T13:58:36.610Z,89.70
2019-03-30T14:01:05.924Z,89.60
2019-03-30T14:03:34.483Z,87.60
2019-03-30T14:06:03.086Z,89.30
2019-03-30T14:08:31.767Z,89.90
2019-03-30T14:11:00.451Z,90.80
2019-03-30T14:13:29.222Z,90.60
2019-03-30T14:15:58.014Z,88.90
2019-03-30T14:18:28.844Z,90.20
2019-03-30T14:20:57.425Z,91.20
2019-03-30T14:23:25.988Z,90.00
2019-03-30T14:25:56.954Z,90.30
2019-03-30T14:28:26.759Z,90.70
2019-03-30T14:30:57.693Z,88.60
2019-03-30T14:33:29.298Z,90.70
2019-03-30T14:36:01.246Z,89.00
2019-03-30T14:38:30.091Z,90.50
2019-03-30T14:40:58.833Z,90.90
2019-03-30T14:43:27.721Z,91.80
2019-03-30T14:45:56.423Z,91.40
2019-03-30T14:48:28.019Z,90.80
2019-03-30T14:50:56.659Z,90.40
2019-03-30T14:53:25.522Z,90.90
2019-03-30T14:55:54.286Z,90.30
2019-03-30T14:58:23.086Z,89.40
2019-03-30T15:00:51.594Z,90.20
2019-03-30T15:03:20.247Z,91.10
2019-03-30T15:05:49.668Z,91.70
2019-03-30T15:08:19.259Z,90.50
2019-03-30T15:10:48.838Z,90.70
2019-03-30T15:13:17.502Z,91.30
2019-03-30T15:15:46.437Z,92.60
2019-03-30T15:18:15.432Z,92.50
2019-03-30T15:20:45.039Z,91.40
2019-03-30T15:23:13.548Z,90.50
2019-03-30T15:25:44.672Z,90.40
2019-03-30T15:28:13.418Z,90.20
2019-03-30T15:30:42.130Z,91.10
2019-03-30T15:33:12.236Z,92.30
2019-03-30T15:35:42.444Z,91.40
2019-03-30T15:38:11.273Z,91.70
2019-03-30T15:40:45.854Z,91.40
2019-03-30T15:43:14.412Z,91.70
2019-03-30T15:45:43.191Z,91.90
2019-03-30T15:48:11.904Z,91.80
2019-03-30T15:50:40.666Z,92.00
2019-03-30T15:53:09.292Z,91.90
2019-03-30T15:55:43.988Z,92.50
2019-03-30T15:58:10.301Z,92.80
2019-03-30T16:00:38.935Z,93.40
2019-03-30T16:03:10.368Z,92.90
2019-03-30T16:05:42.301Z,93.00
2019-03-30T16:08:10.940Z,92.60
2019-03-30T16:10:39.723Z,93.00
2019-03-30T16:13:08.758Z,93.20
2019-03-30T16:15:37.387Z,92.70
2019-03-30T16:18:08.818Z,92.70
2019-03-30T16:20:40.794Z,93.50
2019-03-30T16:23:12.179Z,93.60
2019-03-30T16:25:40.893Z,94.00
2019-03-30T16:28:15.359Z,93.70
2019-03-30T16:30:51.385Z,94.60
2019-03-30T16:33:21.994Z,94.70
2019-03-30T16:35:53.619Z,94.50
2019-03-30T16:38:22.314Z,94.20
2019-03-30T16:40:53.882Z,94.60
2019-03-30T16:43:22.730Z,95.20
2019-03-30T16:45:51.373Z,95.00
2019-03-30T16:48:20.307Z,95.70
2019-03-30T16:50:52.513Z,95.50
2019-03-30T16:53:21.163Z,95.70
2019-03-30T16:55:50.043Z,95.80
2019-03-30T16:58:23.028Z,97.00
2019-03-30T17:00:56.510Z,97.80
2019-03-30T17:03:19.783Z,97.30
2019-03-30T17:05:49.186Z,97.50
2019-03-30T17:08:20.695Z,97.30
2019-03-30T17:10:49.372Z,97.00
2019-03-30T17:13:19.207Z,97.70
2019-03-30T17:15:52.731Z,98.40
2019-03-30T17:18:22.879Z,98.80
2019-03-30T17:20:53.311Z,99.30
2019-03-30T17:23:22.275Z,99.60
2019-03-30T17:25:55.342Z,99.90
2019-03-30T17:28:25.530Z,99.90
2019-03-30T17:30:54.255Z,99.90
2019-03-30T17:33:22.933Z,99.90
2019-03-30T17:35:51.576Z,99.90
2019-03-30T17:38:20.493Z,99.90
2019-03-30T17:40:49.286Z,99.90
2019-03-30T17:43:17.972Z,99.90
2019-03-30T17:45:46.752Z,99.90
2019-03-30T17:48:15.427Z,99.90
2019-03-30T17:50:47.212Z,99.90
2019-03-30T17:53:17.777Z,99.90
2019-03-30T17:55:46.585Z,99.90
2019-03-30T17:58:16.872Z,99.90
2019-03-30T18:00:47.006Z,99.90
2019-03-30T18:03:16.671Z,99.90
2019-03-30T18:05:48.326Z,99.90
2019-03-30T18:08:18.719Z,99.90
2019-03-30T18:10:49.706Z,99.90
2019-03-30T18:13:22.306Z,99.90
2019-03-30T18:15:50.933Z,99.90
2019-03-30T18:18:22.607Z,99.90
2019-03-30T18:20:57.388Z,99.90
2019-03-30T18:23:29.875Z,99.90
2019-03-30T18:25:58.464Z,99.90
2019-03-30T18:28:27.752Z,99.90
2019-03-30T18:30:56.569Z,99.90
2019-03-30T18:33:26.308Z,99.90
2019-03-30T18:35:55.542Z,99.90
2019-03-30T18:38:24.516Z,99.90
2019-03-30T18:40:54.958Z,99.90
2019-03-30T18:43:28.196Z,99.90
2019-03-30T18:45:56.834Z,99.90
2019-03-30T18:48:25.780Z,99.90
2019-03-30T18:50:54.455Z,99.90
2019-03-30T18:53:23.168Z,99.90
2019-03-30T18:55:54.736Z,99.90
2019-03-30T18:58:40.691Z,99.90
2019-03-30T19:00:57.440Z,99.90
2019-03-30T19:03:40.244Z,99.90
2019-03-30T19:05:58.078Z,99.90
2019-03-30T19:08:28.580Z,99.90
2019-03-30T19:10:59.606Z,99.90
2019-03-30T19:13:28.330Z,99.90
2019-03-30T19:16:01.529Z,99.90
2019-03-30T19:18:30.225Z,99.90
2019-03-30T19:21:04.109Z,99.90
2019-03-30T19:23:33.056Z,99.90
2019-03-30T19:26:02.181Z,99.90
2019-03-30T19:28:30.874Z,99.90
2019-03-30T19:31:02.692Z,99.90
2019-03-30T19:33:31.330Z,99.90
2019-03-30T19:36:00.172Z,99.90
2019-03-30T19:38:28.796Z,99.90
2019-03-30T19:41:00.868Z,99.90
2019-03-30T19:43:29.531Z,99.90
2019-03-30T19:45:59.876Z,99.90
2019-03-30T19:48:36.977Z,99.90
2019-03-30T19:51:05.233Z,99.90
2019-03-30T19:53:33.876Z,99.90
2019-03-30T19:56:02.947Z,99.90
2019-03-30T19:58:31.907Z,99.90
2019-03-30T20:01:09.224Z,99.90
2019-03-30T20:03:39.524Z,99.90
2019-03-30T20:06:09.879Z,99.90
2019-03-30T20:08:38.729Z,99.90
2019-03-30T20:11:07.445Z,99.90
2019-03-30T20:13:36.242Z,99.90
2019-03-30T20:16:09.403Z,99.90
2019-03-30T20:18:40.906Z,99.90
2019-03-30T20:21:09.551Z,99.90
2019-03-30T20:23:38.311Z,99.90
2019-03-30T20:26:17.849Z,99.90
2019-03-30T20:28:52.627Z,99.90
2019-03-30T20:31:21.347Z,99.90
2019-03-30T20:33:49.984Z,99.90
2019-03-30T20:36:20.431Z,99.90
2019-03-30T20:38:49.170Z,99.90
2019-03-30T20:41:19.647Z,99.90
2019-03-30T20:43:51.378Z,99.90
2019-03-30T20:46:21.724Z,99.90
2019-03-30T20:48:50.701Z,99.90
2019-03-30T20:51:21.410Z,99.90
2019-03-30T20:53:57.357Z,99.90
2019-03-30T20:56:26.088Z,99.90
2019-03-30T20:58:56.201Z,99.90
2019-03-30T21:01:25.900Z,99.90
2019-03-30T21:03:54.570Z,99.90
2019-03-30T21:06:23.287Z,99.90
2019-03-30T21:08:51.849Z,99.90
2019-03-30T21:11:20.698Z,99.90
2019-03-30T21:13:56.907Z,99.90
2019-03-30T21:16:25.636Z,99.90
2019-03-30T21:18:54.271Z,99.90
2019-03-30T21:21:26.135Z,99.90
2019-03-30T21:23:55.453Z,99.90
2019-03-30T21:26:31.693Z,99.90
2019-03-30T21:29:00.536Z,99.90
2019-03-30T21:31:29.182Z,99.90
2019-03-30T21:33:57.891Z,99.90
2019-03-30T21:36:26.681Z,99.90
2019-03-30T21:39:00.949Z,99.90
2019-03-30T21:41:29.762Z,99.90
2019-03-30T21:44:00.121Z,99.90
2019-03-30T21:46:28.714Z,99.90
2019-03-30T21:48:57.581Z,99.90
2019-03-30T21:51:28.162Z,99.90
2019-03-30T21:53:56.734Z,99.90
2019-03-30T21:56:27.713Z,99.90
2019-03-30T21:59:02.287Z,99.90
2019-03-30T22:01:30.926Z,99.90
2019-03-30T22:04:04.810Z,99.90
2019-03-30T22:06:36.294Z,99.90
2019-03-30T22:09:09.561Z,99.90
2019-03-30T22:11:41.164Z,99.90
2019-03-30T22:14:09.883Z,99.90
2019-03-30T22:16:38.518Z,99.90
2019-03-30T22:19:07.343Z,99.90
2019-03-30T22:21:36.678Z,99.90
2019-03-30T22:24:05.621Z,99.90
2019-03-30T22:26:36.984Z,99.90
2019-03-30T22:29:05.686Z,99.90
2019-03-30T22:31:34.441Z,99.90
2019-03-30T22:34:04.641Z,99.90
2019-03-30T22:36:35.071Z,99.90
2019-03-30T22:39:05.767Z,99.90
2019-03-30T22:41:34.703Z,99.90
2019-03-30T22:44:03.717Z,99.90
2019-03-30T22:46:32.531Z,99.90
2019-03-30T22:49:04.227Z,99.90
2019-03-30T22:51:33.450Z,99.90
2019-03-30T22:54:02.920Z,99.90
2019-03-30T22:56:33.488Z,99.90
2019-03-30T22:59:02.172Z,99.90
2019-03-30T23:01:31.145Z,99.90
2019-03-30T23:04:00.582Z,99.90
2019-03-30T23:06:29.249Z,99.90
2019-03-30T23:09:00.948Z,99.90
2019-03-30T23:11:29.587Z,99.90
2019-03-30T23:13:58.254Z,99.90
2019-03-30T23:16:28.791Z,99.90
2019-03-30T23:18:59.687Z,99.90
2019-03-30T23:21:28.910Z,99.90
2019-03-30T23:24:00.514Z,99.90
2019-03-30T23:26:29.294Z,99.90
2019-03-30T23:29:05.292Z,99.90
2019-03-30T23:31:39.913Z,99.90
2019-03-30T23:34:08.849Z,99.90
2019-03-30T23:36:40.172Z,99.90
2019-03-30T23:39:09.417Z,99.90
2019-03-30T23:41:39.981Z,99.90
2019-03-30T23:44:08.561Z,99.90
2019-03-30T23:46:37.409Z,99.90
2019-03-30T23:49:06.107Z,99.90
2019-03-30T23:51:34.749Z,99.90
2019-03-30T23:54:07.655Z,99.90
2019-03-30T23:56:36.375Z,99.90
2019-03-30T23:59:05.094Z,99.90
